Time;durP1;ratioP1;P1;durP2;ratioP2;P2;SDS_P1;SDS_P2;PMS_P1;PMS_P2;Temp;Humidity;BMP_temperature;BMP_pressure;BME280_temperature;BME280_humidity;BME280_pressure;Samples;Min_cycle;Max_cycle;Signal;HPM_P1;HPM_P2
2021/04/12 03:03:13;;;;;;;18.12;10.72;;;;;;;9.00;100.00;100742.64;1717069;79;21141;-61
2021/04/12 03:06:09;;;;;;;16.17;10.08;;;;;;;8.99;100.00;100737.12;1742690;80;21368;-61
2021/04/12 03:09:13;;;;;;;15.28;9.65;;;;;;;8.97;100.00;100722.15;1718137;82;21029;-63
2021/04/12 03:12:34;;;;;;;17.50;10.13;;;;;;;8.96;100.00;100729.63;1731435;80;21595;-63
2021/04/12 03:15:48;;;;;;;16.15;9.63;;;;;;;8.94;100.00;100732.90;1741658;80;21092;-62
2021/04/12 03:18:43;;;;;;;18.37;9.35;;;;;;;8.93;100.00;100737.75;1751181;80;21154;-64
2021/04/12 03:21:53;;;;;;;17.73;10.65;;;;;;;8.94;100.00;100732.90;1719189;81;23610;-60
2021/04/12 03:24:34;;;;;;;17.37;10.48;;;;;;;8.94;100.00;100739.39;1715594;82;21169;-60
2021/04/12 03:27:36;;;;;;;14.58;8.78;;;;;;;8.95;100.00;100743.61;1694568;82;21103;-62
2021/04/12 03:30:26;;;;;;;17.62;10.85;;;;;;;8.96;100.00;100734.83;1702384;83;21509;-61
2021/04/12 03:33:38;;;;;;;17.73;10.25;;;;;;;8.98;100.00;100735.50;1730694;81;21208;-60
2021/04/12 03:36:35;;;;;;;19.00;9.93;;;;;;;9.00;100.00;100740.03;1725029;81;21211;-63
2021/04/12 03:39:16;;;;;;;19.35;11.18;;;;;;;9.05;100.00;100751.74;1755402;80;21078;-61
2021/04/12 03:42:05;;;;;;;14.70;9.88;;;;;;;9.07;100.00;100745.91;1723993;81;21214;-61
2021/04/12 03:45:06;;;;;;;15.20;9.50;;;;;;;9.07;100.00;100743.30;1681886;83;21118;-61
2021/04/12 03:48:08;;;;;;;17.10;9.80;;;;;;;9.10;100.00;100743.80;1667992;84;21135;-61
2021/04/12 03:51:15;;;;;;;20.23;9.60;;;;;;;9.14;100.00;100745.10;1682893;83;21243;-61
2021/04/12 03:54:19;;;;;;;12.73;9.28;;;;;;;9.18;100.00;100741.20;1728211;81;20963;-61
2021/04/12 03:57:02;;;;;;;16.40;9.40;;;;;;;9.19;100.00;100745.91;1699512;81;21114;-63
2021/04/12 04:00:10;;;;;;;18.20;11.08;;;;;;;9.21;100.00;100755.68;1724788;81;21152;-61
2021/04/12 04:03:13;;;;;;;15.45;10.03;;;;;;;9.24;100.00;100755.33;1719690;80;21583;-62
2021/04/12 04:06:22;;;;;;;15.38;10.28;;;;;;;9.26;100.00;100754.20;1732897;80;22280;-64
2021/04/12 04:09:11;;;;;;;15.30;9.08;;;;;;;9.26;100.00;100750.30;1702521;82;20966;-61
2021/04/12 04:12:23;;;;;;;20.72;9.83;;;;;;;9.26;100.00;100756.80;1705990;82;21261;-61
2021/04/12 04:15:24;;;;;;;;;;;;;;;9.28;100.00;100748.02;1710465;82;21213;-63
2021/04/12 04:18:18;;;;;;;15.10;8.63;;;;;;;9.30;100.00;100754.70;1700981;82;20225;-63
2021/04/12 04:21:08;;;;;;;20.00;9.95;;;;;;;9.34;100.00;100749.98;1692161;83;21222;-62
2021/04/12 04:23:57;;;;;;;17.05;9.23;;;;;;;9.35;100.00;100753.70;1699967;82;21159;-62
2021/04/12 04:26:58;;;;;;;17.02;9.80;;;;;;;9.35;100.00;100753.70;1710648;82;21204;-62
2021/04/12 04:29:47;;;;;;;16.82;9.83;;;;;;;9.37;100.00;100743.97;1710929;82;21391;-62
2021/04/12 04:32:47;;;;;;;20.25;10.28;;;;;;;9.39;100.00;100747.20;1711286;82;21718;-62
2021/04/12 04:35:57;;;;;;;17.57;11.18;;;;;;;9.39;100.00;100739.39;1710466;82;21212;-61
2021/04/12 04:38:40;;;;;;;15.80;10.13;;;;;;;9.40;100.00;100738.44;1683941;84;21252;-62
2021/04/12 04:41:30;;;;;;;15.30;8.78;;;;;;;9.41;100.00;100719.73;1680268;84;21113;-61
2021/04/12 04:44:44;;;;;;;15.68;10.08;;;;;;;9.43;100.00;100715.16;1681905;84;21077;-62
2021/04/12 04:47:46;;;;;;;17.00;12.05;;;;;;;9.49;100.00;100727.04;1684902;83;21015;-62
2021/04/12 04:50:55;;;;;;;17.32;10.15;;;;;;;9.58;100.00;100729.63;1686609;83;22638;-61
2021/04/12 04:53:53;;;;;;;17.55;11.45;;;;;;;9.62;100.00;100719.20;1675767;84;21145;-61
2021/04/12 04:57:09;;;;;;;15.18;10.10;;;;;;;9.63;100.00;100711.74;1669899;84;21185;-60
2021/04/12 05:00:04;;;;;;;13.75;9.55;;;;;;;9.66;100.00;100703.58;1679214;84;21561;-61
2021/04/12 05:03:29;;;;;;;20.20;10.63;;;;;;;9.81;100.00;100703.25;1684498;83;21172;-61
2021/04/12 05:06:10;;;;;;;18.85;10.03;;;;;;;9.85;100.00;100698.03;1673603;83;21468;-61
2021/04/12 05:09:10;;;;;;;17.37;10.53;;;;;;;9.83;100.00;100701.27;1677607;84;21149;-62
2021/04/12 05:12:10;;;;;;;16.13;10.97;;;;;;;9.84;100.00;100704.19;1696887;83;21703;-62
2021/04/12 05:14:53;;;;;;;18.80;11.20;;;;;;;9.90;100.00;100709.23;1672158;83;21813;-62
2021/04/12 05:18:11;;;;;;;20.50;11.13;;;;;;;9.97;100.00;100697.98;1693731;83;21133;-61
2021/04/12 05:21:04;;;;;;;23.30;12.58;;;;;;;10.08;100.00;100706.42;1685481;83;21389;-62
2021/04/12 05:23:44;;;;;;;19.77;11.12;;;;;;;10.13;100.00;100702.31;1675449;83;21199;-63
2021/04/12 05:26:46;;;;;;;20.87;12.23;;;;;;;10.14;100.00;100699.22;1680692;83;21213;-62
2021/04/12 05:30:00;;;;;;;26.60;13.73;;;;;;;10.11;100.00;100706.06;1679778;83;21672;-62
2021/04/12 05:33:03;;;;;;;21.77;13.03;;;;;;;10.07;100.00;100709.98;1689402;83;21332;-64
2021/04/12 05:35:54;;;;;;;25.70;12.40;;;;;;;10.06;100.00;100698.76;1684957;83;21361;-63
2021/04/12 05:39:03;;;;;;;22.35;11.63;;;;;;;10.00;100.00;100696.84;1695357;83;21433;-62
2021/04/12 05:41:52;;;;;;;23.83;11.70;;;;;;;9.93;100.00;100696.70;1648784;83;21212;-64
2021/04/12 05:44:40;;;;;;;21.40;11.53;;;;;;;9.94;100.00;100698.80;1684823;83;21973;-64
2021/04/12 05:47:24;;;;;;;21.90;12.70;;;;;;;10.01;100.00;100705.47;1685544;83;21251;-65
2021/04/12 05:53:20;;;;;;;19.87;11.23;;;;;;;10.09;100.00;100700.22;1671638;81;21923;-65
2021/04/12 05:56:09;;;;;;;20.60;12.10;;;;;;;10.15;100.00;100704.73;1711301;81;21300;-63
2021/04/12 05:59:04;;;;;;;18.70;12.67;;;;;;;10.21;100.00;100701.47;1683295;82;21974;-64
2021/04/12 06:02:08;;;;;;;22.63;13.47;;;;;;;10.25;100.00;100705.39;1714688;81;21435;-61
2021/04/12 06:04:57;;;;;;;20.13;11.93;;;;;;;10.20;100.00;100708.97;1712629;82;21340;-62
2021/04/12 06:08:07;;;;;;;21.67;12.50;;;;;;;10.21;100.00;100710.59;1765567;80;22001;-64
2021/04/12 06:10:58;;;;;;;19.15;11.83;;;;;;;10.20;100.00;100711.08;1764140;80;21436;-63
2021/04/12 06:14:07;;;;;;;20.10;12.40;;;;;;;10.15;100.00;100710.79;1767965;80;21158;-64
2021/04/12 06:16:50;;;;;;;22.37;10.93;;;;;;;10.19;100.00;100719.89;1723633;81;21809;-66
2021/04/12 06:20:03;;;;;;;24.77;12.70;;;;;;;10.27;100.00;100713.86;1684327;83;21478;-64
2021/04/12 06:22:59;;;;;;;19.27;11.80;;;;;;;10.34;100.00;100707.45;1647697;85;21743;-64
2021/04/12 06:25:41;;;;;;;24.13;11.83;;;;;;;10.42;100.00;100719.17;1673614;84;21331;-65
2021/04/12 06:28:55;;;;;;;24.43;11.63;;;;;;;10.47;100.00;100719.46;1719148;81;21913;-61
2021/04/12 06:32:00;;;;;;;24.43;13.30;;;;;;;10.46;100.00;100718.66;1691235;83;21430;-64
2021/04/12 06:35:10;;;;;;;24.20;12.00;;;;;;;10.42;100.00;100718.67;1650352;85;22423;-65
2021/04/12 06:38:20;;;;;;;25.10;12.20;;;;;;;10.46;100.00;100724.36;1665635;84;21562;-66
2021/04/12 06:41:21;;;;;;;31.63;14.20;;;;;;;10.57;100.00;100725.75;1818955;78;22856;-63
2021/04/12 06:44:10;;;;;;;25.67;12.80;;;;;;;10.57;100.00;100732.27;1788170;78;21090;-65
2021/04/12 06:47:05;;;;;;;18.80;12.03;;;;;;;10.59;100.00;100731.61;1785664;79;21320;-67
2021/04/12 06:50:08;;;;;;;21.93;11.60;;;;;;;10.63;100.00;100736.80;1783999;78;21214;-62
2021/04/12 06:53:06;;;;;;;29.80;13.57;;;;;;;10.65;100.00;100728.33;1778809;79;21099;-62
2021/04/12 06:56:00;;;;;;;26.77;12.53;;;;;;;10.71;100.00;100734.15;1777927;79;21265;-62
2021/04/12 06:59:15;;;;;;;30.87;14.47;;;;;;;10.76;100.00;100728.41;1781170;78;21810;-64
2021/04/12 07:02:28;;;;;;;26.60;15.63;;;;;;;10.77;100.00;100725.65;1744445;79;21497;-62
2021/04/12 07:05:21;;;;;;;26.17;15.83;;;;;;;10.71;100.00;100721.91;1752190;79;20994;-63
2021/04/12 07:08:08;;;;;;;24.40;14.00;;;;;;;10.66;100.00;100716.42;1718649;82;21242;-62
2021/04/12 07:11:19;;;;;;;28.13;13.80;;;;;;;10.70;100.00;100720.30;1723094;82;21211;-64
2021/04/12 07:14:11;;;;;;;27.57;14.47;;;;;;;10.76;100.00;100722.73;1734679;82;21830;-61
2021/04/12 07:17:24;;;;;;;22.67;14.90;;;;;;;10.81;100.00;100723.51;1726957;80;21406;-61
2021/04/12 07:20:22;;;;;;;27.00;15.13;;;;;;;10.94;100.00;100729.75;1732503;80;21530;-61
2021/04/12 07:23:22;;;;;;;27.57;14.40;;;;;;;11.16;100.00;100724.22;1690617;82;22071;-62
2021/04/12 07:26:20;;;;;;;34.80;16.07;;;;;;;11.41;100.00;100729.25;1730998;80;21328;-60
2021/04/12 07:29:15;;;;;;;27.97;15.50;;;;;;;11.61;100.00;100726.44;1708977;81;21287;-61
2021/04/12 07:31:50;;;;;;;24.57;13.83;;;;;;;11.80;100.00;100721.19;1694340;82;21931;-60
2021/04/12 07:35:07;;;;;;;25.20;14.63;;;;;;;11.95;100.00;100723.84;1731255;80;21352;-61
2021/04/12 07:37:57;;;;;;;26.40;15.53;;;;;;;12.26;100.00;100732.78;1736075;81;21326;-61
2021/04/12 07:41:13;;;;;;;26.67;14.00;;;;;;;12.26;100.00;100732.78;1677994;80;21560;-61
2021/04/12 07:44:37;;;;;;;34.00;19.00;;;;;;;12.45;100.00;100722.25;1731486;80;22115;-62
2021/04/12 07:48:00;;;;;;;25.77;15.17;;;;;;;12.74;100.00;100723.98;1755344;80;22027;-62
2021/04/12 07:51:08;;;;;;;31.15;16.25;;;;;;;12.96;100.00;100747.56;1758983;80;21621;-64
2021/04/12 07:53:59;;;;;;;26.63;14.70;;;;;;;12.81;100.00;100738.45;1748799;80;21629;-64
2021/04/12 07:57:15;;;;;;;23.55;13.88;;;;;;;12.82;100.00;100733.02;1796837;79;22336;-64
2021/04/12 08:00:14;;;;;;;23.00;14.20;;;;;;;12.86;100.00;100689.79;1789533;77;20990;-64
2021/04/12 08:03:06;;;;;;;22.43;12.63;;;;;;;13.13;100.00;100732.70;1797113;77;23395;-64
2021/04/12 08:06:13;;;;;;;25.47;14.03;;;;;;;13.49;100.00;100731.84;1762703;79;21843;-64
2021/04/12 08:09:34;;;;;;;27.83;13.60;;;;;;;13.85;100.00;100734.78;1792565;77;22319;-64
2021/04/12 08:15:47;;;;;;;24.00;14.23;;;;;;;14.58;100.00;100730.72;1697438;82;21152;-64
2021/04/12 08:18:45;;;;;;;30.03;11.97;;;;;;;15.03;100.00;100732.80;1696079;82;21876;-63
2021/04/12 08:21:47;;;;;;;24.33;11.70;;;;;;;15.45;100.00;100732.11;1664864;84;21186;-63
2021/04/12 08:25:01;;;;;;;22.70;11.80;;;;;;;15.83;100.00;100729.66;1681860;83;20952;-63
2021/04/12 08:28:03;;;;;;;28.87;13.83;;;;;;;16.27;100.00;100732.86;1668765;84;21073;-64
2021/04/12 08:30:52;;;;;;;22.35;11.35;;;;;;;16.68;100.00;100736.12;1696488;82;21679;-64
2021/04/12 08:34:06;;;;;;;25.20;12.87;;;;;;;17.26;100.00;100730.16;1827039;77;27404;-62
2021/04/12 08:37:04;;;;;;;22.43;12.57;;;;;;;17.57;100.00;100722.39;1797695;78;20980;-63
2021/04/12 08:40:15;;;;;;;25.10;11.90;;;;;;;18.14;100.00;100724.34;1809089;77;20976;-62
2021/04/12 08:43:03;;;;;;;26.00;12.87;;;;;;;18.18;95.90;100719.75;1750123;80;21020;-64
2021/04/12 08:46:11;;;;;;;22.37;11.70;;;;;;;18.02;97.48;100730.08;1744112;81;22139;-64
2021/04/12 08:49:14;;;;;;;25.73;14.47;;;;;;;17.88;96.23;100727.60;1757642;81;21029;-64
2021/04/12 08:51:48;;;;;;;27.80;11.97;;;;;;;17.83;96.15;100715.56;1757099;81;20997;-65
2021/04/12 08:54:53;;;;;;;28.50;12.73;;;;;;;17.77;97.01;100717.78;1760671;81;22141;-65
2021/04/12 08:57:56;;;;;;;26.00;11.80;;;;;;;17.91;97.45;100711.83;1778374;80;21048;-66
2021/04/12 09:00:39;;;;;;;24.80;12.73;;;;;;;18.16;95.90;100719.15;1741797;81;20931;-63
2021/04/12 09:03:19;;;;;;;32.20;15.40;;;;;;;18.37;92.13;100726.30;1746078;81;21567;-64
2021/04/12 09:06:01;;;;;;;21.43;12.83;;;;;;;18.54;89.63;100715.94;1730727;81;21096;-65
2021/04/12 09:09:24;;;;;;;36.10;22.60;;;;;;;18.63;86.58;100721.17;1774814;79;21380;-66
2021/04/12 09:12:24;;;;;;;36.47;21.37;;;;;;;18.71;85.35;100727.00;1724880;81;21185;-66
2021/04/12 09:15:36;;;;;;;65.20;44.10;;;;;;;18.88;83.68;100718.42;1744090;81;21029;-66
2021/04/12 09:18:35;;;;;;;43.23;33.30;;;;;;;19.17;82.94;100715.44;1735817;81;21136;-65
2021/04/12 09:21:43;;;;;;;32.87;27.50;;;;;;;19.42;78.24;100725.25;1753238;81;21099;-66
2021/04/12 09:24:40;;;;;;;90.00;65.10;;;;;;;19.51;75.91;100727.55;1742480;81;21100;-67
2021/04/12 09:27:37;;;;;;;25.57;17.23;;;;;;;19.55;73.75;100730.84;1760382;80;21002;-66
2021/04/12 09:31:01;;;;;;;21.07;12.83;;;;;;;19.50;73.33;100726.75;1708263;81;21184;-67
2021/04/12 09:34:08;;;;;;;21.30;13.10;;;;;;;19.48;73.79;100727.52;1691875;83;21038;-63
2021/04/12 09:37:09;;;;;;;21.73;13.07;;;;;;;19.65;74.10;100729.76;1657621;86;21149;-66
2021/04/12 09:39:57;;;;;;;23.43;12.20;;;;;;;19.91;72.41;100723.69;1684776;84;22986;-67
2021/04/12 09:43:23;;;;;;;23.73;11.73;;;;;;;20.22;70.62;100722.98;1663175;85;21133;-68
2021/04/12 09:46:21;;;;;;;22.70;10.90;;;;;;;20.45;66.45;100722.09;1658689;84;21082;-67
2021/04/12 09:49:30;;;;;;;17.57;11.63;;;;;;;20.68;64.99;100726.50;1692645;83;21078;-68
2021/04/12 09:52:41;;;;;;;19.00;11.37;;;;;;;20.91;62.92;100713.15;1691452;84;21164;-64
2021/04/12 09:55:49;;;;;;;27.07;11.70;;;;;;;21.20;59.05;100722.33;1688288;84;22192;-62
2021/04/12 09:58:58;;;;;;;30.50;15.53;;;;;;;21.36;57.97;100735.59;1689633;84;21575;-65
2021/04/12 10:02:08;;;;;;;42.07;30.47;;;;;;;21.54;56.08;100739.84;1689391;84;21608;-65
2021/04/12 10:05:12;;;;;;;41.30;25.82;;;;;;;21.68;55.11;100741.63;1691887;84;21223;-65
2021/04/12 10:08:21;;;;;;;39.83;27.13;;;;;;;21.62;54.40;100750.56;1691178;83;21191;-65
2021/04/12 10:11:10;;;;;;;40.88;18.62;;;;;;;21.48;55.44;100746.14;1692623;84;21125;-65
2021/04/12 10:14:07;;;;;;;21.87;15.33;;;;;;;21.59;55.52;100739.93;1673807;84;21196;-64
2021/04/12 10:16:38;;;;;;;22.47;15.60;;;;;;;21.59;54.34;100745.23;1681492;84;21117;-65
2021/04/12 10:19:18;;;;;;;35.63;23.30;;;;;;;21.32;55.36;100731.80;1685669;84;20958;-65
2021/04/12 10:21:57;;;;;;;34.83;22.53;;;;;;;21.34;56.63;100724.44;1684834;84;21584;-65
2021/04/12 10:24:30;;;;;;;32.43;20.33;;;;;;;21.43;56.68;100728.80;1700944;83;21467;-65
2021/04/12 10:27:22;;;;;;;29.37;18.53;;;;;;;21.43;56.11;100730.12;1700053;83;21587;-65
2021/04/12 10:29:53;;;;;;;;;;;;;;;21.41;57.30;100724.28;1723577;82;21595;-65
2021/04/12 10:32:26;;;;;;;34.87;21.43;;;;;;;21.61;57.46;100712.62;1698533;82;20493;-65
2021/04/12 10:35:12;;;;;;;33.37;20.67;;;;;;;21.79;55.76;100704.10;1687624;81;21127;-65
2021/04/12 10:37:46;;;;;;;42.87;25.40;;;;;;;21.71;54.40;100698.70;1740421;80;21371;-65
2021/04/12 10:40:41;;;;;;;43.87;28.80;;;;;;;21.56;55.13;100696.64;1736998;80;21007;-65
2021/04/12 10:43:42;;;;;;;32.80;23.10;;;;;;;21.40;55.39;100687.38;1742377;80;21598;-69
2021/04/12 10:46:21;;;;;;;33.67;21.77;;;;;;;21.19;56.07;100689.72;1715329;82;21170;-66
2021/04/12 10:48:53;;;;;;;29.13;18.93;;;;;;;21.18;57.96;100696.59;1715453;82;21177;-68
2021/04/12 10:51:45;;;;;;;29.57;20.27;;;;;;;21.31;56.81;100697.05;1740453;80;21286;-67
2021/04/12 10:55:10;;;;;;;40.43;24.93;;;;;;;21.45;57.08;100708.69;1728169;80;20956;-66
2021/04/12 10:57:50;;;;;;;33.77;23.83;;;;;;;21.57;55.39;100718.13;1736939;80;21150;-64
2021/04/12 11:00:38;;;;;;;31.33;21.13;;;;;;;21.47;55.18;100727.80;1732093;80;21081;-66
2021/04/12 11:03:25;;;;;;;32.03;21.10;;;;;;;21.35;54.89;100737.17;1720961;81;20988;-66
2021/04/12 11:06:29;;;;;;;28.93;20.30;;;;;;;21.31;55.73;100738.15;1738417;80;21143;-66
2021/04/12 11:09:23;;;;;;;30.30;22.37;;;;;;;21.27;55.47;100740.20;1753766;80;21050;-65
2021/04/12 11:12:13;;;;;;;36.00;24.17;;;;;;;21.07;56.45;100735.40;1731345;80;21210;-65
2021/04/12 11:14:59;;;;;;;36.17;22.27;;;;;;;20.89;58.07;100733.77;1753709;80;21205;-66
2021/04/12 11:17:40;;;;;;;33.30;22.90;;;;;;;20.78;58.58;100730.14;1751617;80;21081;-66
2021/04/12 11:20:31;;;;;;;30.37;21.67;;;;;;;20.60;59.41;100731.14;1720140;80;21229;-66
2021/04/12 11:23:03;;;;;;;32.63;21.93;;;;;;;20.35;61.94;100738.61;1757601;80;21245;-65
2021/04/12 11:25:37;;;;;;;33.00;21.57;;;;;;;20.23;64.00;100736.00;1754851;79;21177;-65
2021/04/12 11:28:23;;;;;;;31.53;21.07;;;;;;;20.32;64.46;100743.84;1761066;80;21149;-65
2021/04/12 11:31:21;;;;;;;29.20;19.83;;;;;;;20.50;63.27;100740.25;1814592;78;27260;-65
2021/04/12 11:34:19;;;;;;;31.80;19.83;;;;;;;20.50;62.38;100730.98;1792932;77;21006;-64
2021/04/12 11:37:10;;;;;;;28.43;19.23;;;;;;;20.58;60.63;100733.77;1783892;77;21197;-64
2021/04/12 11:39:42;;;;;;;24.67;18.30;;;;;;;20.50;60.86;100738.92;1770443;77;20931;-65
2021/04/12 11:42:17;;;;;;;24.83;17.87;;;;;;;20.48;62.30;100738.31;1798869;78;20911;-66
2021/04/12 11:45:03;;;;;;;22.47;16.27;;;;;;;20.58;60.87;100727.94;1744106;80;21029;-66
2021/04/12 11:47:54;;;;;;;23.43;15.33;;;;;;;20.65;60.48;100725.16;1749749;79;20994;-65
2021/04/12 11:50:34;;;;;;;;;;;;;;;20.69;59.80;100729.45;1735092;80;22131;-65
2021/04/12 11:53:29;;;;;;;24.87;15.70;;;;;;;20.55;58.83;100724.44;1722734;80;20256;-65
2021/04/12 11:56:38;;;;;;;26.80;16.57;;;;;;;20.28;60.48;100730.00;1736516;81;20906;-66
2021/04/12 11:59:47;;;;;;;29.47;16.93;;;;;;;20.02;62.44;100722.87;1728030;82;21133;-65
2021/04/12 12:02:42;;;;;;;27.57;17.83;;;;;;;19.95;63.14;100722.71;1717677;80;21228;-64
2021/04/12 12:05:31;;;;;;;21.17;15.83;;;;;;;19.85;64.90;100721.48;1714946;80;21252;-63
2021/04/12 12:08:05;;;;;;;27.33;16.60;;;;;;;19.87;64.73;100722.55;1719464;80;21602;-64
2021/04/12 12:11:00;;;;;;;30.17;17.90;;;;;;;19.93;64.72;100736.19;1717670;82;21153;-64
2021/04/12 12:13:37;;;;;;;27.90;16.67;;;;;;;19.97;65.07;100738.65;1716932;80;21002;-64
2021/04/12 12:16:19;;;;;;;24.73;15.77;;;;;;;19.95;64.00;100739.39;1726444;80;21212;-64
2021/04/12 12:19:10;;;;;;;26.83;18.27;;;;;;;19.96;64.63;100741.51;1732066;81;22630;-64
2021/04/12 12:22:11;;;;;;;26.75;17.50;;;;;;;20.08;63.59;100741.79;1717806;80;21085;-64
2021/04/12 12:24:46;;;;;;;;;;;;;;;20.11;62.50;100743.14;1729383;80;21155;-64
2021/04/12 12:27:35;;;;;;;26.20;18.77;;;;;;;20.00;63.70;100737.36;1717869;82;20153;-64
2021/04/12 12:30:18;;;;;;;25.13;18.63;;;;;;;19.84;64.13;100742.86;1748706;80;21189;-66
2021/04/12 12:33:00;;;;;;;36.20;20.90;;;;;;;19.60;66.90;100742.84;1749593;80;21047;-66
2021/04/12 12:35:36;;;;;;;26.67;19.03;;;;;;;19.43;68.47;100738.78;1743817;80;21077;-64
2021/04/12 12:38:45;;;;;;;31.17;19.90;;;;;;;19.37;70.14;100738.89;1742219;80;21231;-63
2021/04/12 12:41:19;;;;;;;32.33;18.00;;;;;;;19.24;71.13;100739.89;1729566;80;21002;-64
2021/04/12 12:43:47;;;;;;;26.57;18.40;;;;;;;19.14;72.96;100748.92;1738644;80;21156;-64
2021/04/12 12:46:26;;;;;;;29.37;19.70;;;;;;;19.03;73.89;100751.02;1726705;81;21330;-63
2021/04/12 12:49:00;;;;;;;26.00;19.37;;;;;;;18.91;76.19;100766.33;1701338;81;21231;-63
2021/04/12 12:51:37;;;;;;;33.00;21.50;;;;;;;18.67;77.80;100759.31;1729533;81;21187;-64
2021/04/12 12:54:30;;;;;;;29.63;20.13;;;;;;;18.33;81.21;100759.44;1740331;80;22419;-62
2021/04/12 12:57:16;;;;;;;27.37;18.43;;;;;;;18.03;85.32;100770.73;1735094;80;20891;-65
2021/04/12 13:00:19;;;;;;;28.53;20.33;;;;;;;17.79;88.89;100775.56;1730159;80;21567;-62
2021/04/12 13:02:48;;;;;;;29.73;21.63;;;;;;;17.57;92.71;100785.14;1739215;81;22508;-64
2021/04/12 13:05:31;;;;;;;36.33;22.47;;;;;;;17.44;95.96;100786.59;1739818;80;20944;-66
2021/04/12 13:08:11;;;;;;;28.00;20.67;;;;;;;17.31;98.25;100780.89;1743026;80;21073;-66
2021/04/12 13:10:43;;;;;;;31.83;21.50;;;;;;;17.27;99.60;100786.30;1731046;81;21009;-66
2021/04/12 13:13:22;;;;;;;34.57;21.97;;;;;;;17.19;100.00;100786.05;1740411;81;21161;-66
2021/04/12 13:15:51;;;;;;;34.30;22.97;;;;;;;17.12;100.00;100789.27;1728281;81;21073;-67
2021/04/12 13:18:28;;;;;;;31.20;20.70;;;;;;;17.11;100.00;100789.45;1713720;81;21089;-66
2021/04/12 13:21:11;;;;;;;52.40;20.87;;;;;;;17.10;100.00;100792.61;1733353;80;21009;-67
2021/04/12 13:23:50;;;;;;;27.70;19.93;;;;;;;17.08;100.00;100799.09;1736383;80;20950;-68
2021/04/12 13:26:35;;;;;;;31.07;18.93;;;;;;;17.05;100.00;100803.46;1733724;80;21382;-66
2021/04/12 13:29:17;;;;;;;30.57;20.83;;;;;;;16.99;100.00;100801.19;1735086;80;21559;-64
2021/04/12 13:31:59;;;;;;;285.77;159.57;;;;;;;16.91;100.00;100806.19;1739512;82;21102;-63
2021/04/12 13:34:33;;;;;;;;;;;;;;;16.84;100.00;100808.05;1753462;79;21655;-65
2021/04/12 13:37:16;;;;;;;155.00;129.57;;;;;;;16.81;100.00;100807.66;1763445;79;20663;-65
2021/04/12 13:39:55;;;;;;;48.13;42.97;;;;;;;16.79;100.00;100805.25;1754416;81;21388;-63
2021/04/12 13:42:33;;;;;;;33.57;25.90;;;;;;;16.78;100.00;100804.45;1756571;79;21001;-63
2021/04/12 13:45:07;;;;;;;33.57;25.97;;;;;;;16.81;100.00;100804.52;1724069;81;21026;-63
2021/04/12 13:47:47;;;;;;;35.87;24.10;;;;;;;16.92;100.00;100805.16;1735243;80;21090;-65
2021/04/12 13:50:21;;;;;;;43.17;32.43;;;;;;;17.01;100.00;100804.42;1730429;81;21109;-63
2021/04/12 13:52:55;;;;;;;34.97;27.27;;;;;;;17.04;100.00;100818.46;1725131;80;21210;-63
2021/04/12 13:55:28;;;;;;;46.77;35.53;;;;;;;17.05;100.00;100821.42;1721943;81;21618;-64
2021/04/12 13:58:11;;;;;;;111.93;97.40;;;;;;;17.07;100.00;100825.95;1733562;81;22429;-63
2021/04/12 14:00:55;;;;;;;33.23;25.67;;;;;;;17.10;100.00;100830.00;1705911;82;21151;-63
2021/04/12 14:03:30;;;;;;;36.77;25.10;;;;;;;17.09;100.00;100829.70;1739911;80;21136;-63
2021/04/12 14:06:27;;;;;;;36.63;30.47;;;;;;;17.07;100.00;100836.48;1755003;79;21263;-63
2021/04/12 14:09:00;;;;;;;41.47;28.03;;;;;;;17.03;100.00;100833.98;1737141;80;21029;-64
2021/04/12 14:11:40;;;;;;;40.67;28.90;;;;;;;17.01;100.00;100834.72;1734684;80;20983;-63
2021/04/12 14:14:19;;;;;;;44.00;30.40;;;;;;;16.97;100.00;100836.95;1738802;80;20999;-64
2021/04/12 14:16:50;;;;;;;33.57;28.80;;;;;;;16.92;100.00;100834.64;1734998;80;21180;-64
2021/04/12 14:19:26;;;;;;;42.58;29.00;;;;;;;16.83;100.00;100834.60;1706742;80;21532;-63
2021/04/12 14:22:29;;;;;;;39.37;28.50;;;;;;;16.77;100.00;100838.35;1727243;81;21176;-64
2021/04/12 14:25:13;;;;;;;41.20;33.70;;;;;;;16.72;100.00;100836.03;1726464;80;20990;-63
2021/04/12 14:27:44;;;;;;;74.63;51.93;;;;;;;16.60;100.00;100835.88;1727025;80;21239;-63
2021/04/12 14:30:21;;;;;;;47.53;35.43;;;;;;;16.52;100.00;100833.48;1731761;80;21141;-63
2021/04/12 14:33:01;;;;;;;41.70;28.80;;;;;;;16.49;100.00;100835.20;1715207;82;22074;-63
2021/04/12 14:35:42;;;;;;;38.70;28.95;;;;;;;16.40;100.00;100824.59;1721112;80;21216;-62
2021/04/12 14:38:23;;;;;;;38.00;29.13;;;;;;;16.32;100.00;100820.88;1726765;82;21212;-63
2021/04/12 14:41:03;;;;;;;40.77;27.80;;;;;;;16.24;100.00;100825.34;1733862;82;21137;-63
2021/04/12 14:43:38;;;;;;;39.67;27.70;;;;;;;16.15;100.00;100825.78;1722593;80;21603;-62
2021/04/12 14:46:22;;;;;;;37.30;29.40;;;;;;;16.04;100.00;100834.59;1724569;80;21207;-64
2021/04/12 14:49:09;;;;;;;43.83;30.23;;;;;;;15.88;100.00;100828.45;1715780;81;21065;-62
2021/04/12 14:51:57;;;;;;;41.47;30.53;;;;;;;15.72;100.00;100824.91;1788794;78;21118;-66
2021/04/12 14:54:36;;;;;;;40.33;29.03;;;;;;;15.55;100.00;100820.03;1792000;78;21194;-64
2021/04/12 14:57:13;;;;;;;40.30;30.07;;;;;;;15.41;100.00;100822.34;1763342;79;21105;-64
2021/04/12 14:59:54;;;;;;;41.10;29.80;;;;;;;15.30;100.00;100832.95;1788107;78;21129;-63
2021/04/12 15:02:43;;;;;;;41.20;29.37;;;;;;;15.22;100.00;100833.13;1771393;79;21129;-64
2021/04/12 15:05:16;;;;;;;40.33;30.87;;;;;;;15.15;100.00;100834.92;1782187;78;21222;-63
2021/04/12 15:07:49;;;;;;;46.63;31.07;;;;;;;15.08;100.00;100823.62;1795681;78;21160;-62
2021/04/12 15:10:32;;;;;;;45.93;30.90;;;;;;;14.96;100.00;100819.93;1753040;78;21125;-64
2021/04/12 15:13:05;;;;;;;40.80;30.03;;;;;;;14.88;100.00;100826.67;1780608;79;21196;-63
2021/04/12 15:15:40;;;;;;;47.23;31.37;;;;;;;14.79;100.00;100830.79;1785404;78;20999;-62
2021/04/12 15:18:31;;;;;;;46.90;32.30;;;;;;;14.71;100.00;100837.52;1809467;78;20888;-63
2021/04/12 15:21:07;;;;;;;51.18;33.88;;;;;;;14.65;100.00;100837.48;1790407;78;21556;-65
2021/04/12 15:23:40;;;;;;;46.47;34.77;;;;;;;14.56;100.00;100840.79;1773925;78;21072;-64
2021/04/12 15:26:32;;;;;;;53.97;35.10;;;;;;;14.49;100.00;100842.53;1749170;79;21293;-64
2021/04/12 15:29:40;;;;;;;51.80;36.80;;;;;;;14.42;100.00;100849.56;1752938;80;21022;-63
2021/04/12 15:32:17;;;;;;;51.10;36.60;;;;;;;14.32;100.00;100844.67;1770036;79;20936;-63
2021/04/12 15:34:58;;;;;;;52.97;35.47;;;;;;;14.24;100.00;100839.05;1773724;78;21118;-65
2021/04/12 15:37:36;;;;;;;51.33;36.07;;;;;;;14.19;100.00;100840.14;1780066;78;21860;-65
2021/04/12 15:40:23;;;;;;;57.33;38.40;;;;;;;14.15;100.00;100841.53;1767220;78;21673;-63
2021/04/12 15:43:15;;;;;;;49.50;34.30;;;;;;;14.03;100.00;100834.70;1782459;78;21483;-63
2021/04/12 15:46:05;;;;;;;50.95;38.83;;;;;;;14.03;100.00;100834.70;1767191;78;21010;-62
2021/04/12 15:48:53;;;;;;;;;;;;;;;13.99;100.00;100836.59;1779029;78;21182;-63
2021/04/12 15:51:29;;;;;;;45.97;33.90;;;;;;;13.92;100.00;100840.47;1779502;78;20312;-66
2021/04/12 15:54:15;;;;;;;55.10;43.20;;;;;;;13.87;100.00;100839.73;1782860;78;21873;-61
2021/04/12 15:57:06;;;;;;;47.10;35.57;;;;;;;13.84;100.00;100855.02;1762986;78;22275;-64
2021/04/12 15:59:39;;;;;;;48.53;34.40;;;;;;;13.79;100.00;100852.98;1767258;78;21681;-61
2021/04/12 16:02:38;;;;;;;61.37;39.73;;;;;;;13.74;100.00;100855.34;1785751;78;21848;-62
2021/04/12 16:05:21;;;;;;;69.63;37.30;;;;;;;13.70;100.00;100848.86;1781139;78;21762;-63
2021/04/12 16:07:58;;;;;;;57.57;38.97;;;;;;;13.66;100.00;100850.73;1759643;79;21872;-63